Portada
METAR-TAF:

METAR-TAF

Aeroports :

Manado, Indonèsia

latitud: 01-32N, longitud: 124-55E, altitud: 80 m

Observació

L'informe es va fer fa 14 minuts, a les 07:30 UTC
Vent 4 kt del Sud/Sud-Oest
Temperatura 28°C
Humitat 79%
Pressió 1008 hPa
Visibilitat: 9000 m
Cel ennuvolat a una alçada de 2000 ft
xàfecs en les proximitats

METAR: WAMM 150730Z 21004KT 9000 VCSH BKN020 28/24 Q1008 NOSIG

Hora: 14:44 (07:44 UTC)

Pronòstic

L'informe es va fer fa 2 hores i 44 minuts, a les 05:00 UTC
Pronòstic vàlid del 15 a les 06 UTC al 16 a les 12 UTC
Vent 13 kt del Nord
Visibilitat 10 km o més
Núvols disperses a una alçada de 2100 ft
Evolucionant progressivament
l' 15 a les 09 UTC al 15 a les 11 UTC
Vent 3 kt del Est/Sud-Est

TAF: WAMM 150500Z 1506/1612 35013KT 9999 SCT021 BECMG 1509/1511 11003KT

Observacions i pronòstics meteorològics de més de 4000 aeroports (METAR i TAF).

Les estacions disponibles són els punts grocs i vermells al mapa.

Posi el ratolí al punt desitjat per veure el nom de l'estació.

Feu clic per veure les observacions i els pronòstics meteorològics.

Per canviar el mapa: feu clic els botons verds amb una creu de color negre per apropar; al botó verd amb un guió per allunyar la imatge; o en les fletxes verdes per a mapes adjacents.


METAR-TAF: